createdAt,value
2023-04-02T00:02:22.367Z,5.00
2023-04-02T00:05:19.670Z,4.60
2023-04-02T00:07:50.479Z,4.80
2023-04-02T00:10:34.954Z,5.10
2023-04-02T00:13:11.388Z,4.90
2023-04-02T00:15:41.643Z,4.70
2023-04-02T00:18:19.447Z,4.10
2023-04-02T00:20:53.151Z,4.80
2023-04-02T00:23:21.030Z,4.60
2023-04-02T00:25:48.863Z,4.70
2023-04-02T00:28:22.421Z,5.20
2023-04-02T00:30:58.303Z,4.90
2023-04-02T00:33:30.419Z,5.20
2023-04-02T00:35:58.610Z,5.50
2023-04-02T00:38:30.308Z,4.60
2023-04-02T00:41:07.761Z,4.60
2023-04-02T00:43:38.521Z,5.10
2023-04-02T00:46:15.467Z,4.60
2023-04-02T00:48:46.945Z,4.20
2023-04-02T00:51:19.778Z,4.50
2023-04-02T00:53:49.506Z,4.40
2023-04-02T00:56:29.195Z,4.40
2023-04-02T00:58:58.369Z,4.40
2023-04-02T01:01:29.852Z,4.50
2023-04-02T01:03:59.927Z,4.90
2023-04-02T01:06:37.372Z,4.50
2023-04-02T01:09:37.864Z,4.20
2023-04-02T01:12:31.949Z,4.00
2023-04-02T01:15:14.982Z,4.40
2023-04-02T01:18:07.740Z,4.20
2023-04-02T01:20:47.875Z,4.10
2023-04-02T01:23:29.449Z,3.70
2023-04-02T01:26:17.570Z,3.80
2023-04-02T01:28:57.642Z,4.20
2023-04-02T01:31:27.537Z,5.10
2023-04-02T01:33:56.476Z,4.30
2023-04-02T01:36:52.121Z,4.10
2023-04-02T01:39:39.978Z,4.10
2023-04-02T01:42:13.726Z,4.40
2023-04-02T01:44:52.305Z,4.50
2023-04-02T01:47:29.068Z,4.50
2023-04-02T01:50:01.553Z,4.30
2023-04-02T01:52:41.228Z,4.20
2023-04-02T01:55:13.256Z,3.60
2023-04-02T01:57:44.969Z,3.60
2023-04-02T02:00:17.622Z,3.30
2023-04-02T02:02:49.774Z,3.40
2023-04-02T02:05:23.073Z,3.70
2023-04-02T02:07:52.418Z,3.70
2023-04-02T02:10:39.009Z,3.40
2023-04-02T02:13:07.470Z,3.70
2023-04-02T02:15:36.576Z,3.90
2023-04-02T02:18:07.904Z,3.80
2023-04-02T02:20:36.368Z,3.70
2023-04-02T02:23:05.643Z,3.80
2023-04-02T02:25:36.464Z,3.40
2023-04-02T02:28:26.260Z,3.70
2023-04-02T02:31:01.404Z,4.00
2023-04-02T02:33:37.300Z,4.50
2023-04-02T02:36:14.305Z,4.20
2023-04-02T02:39:05.120Z,4.40
2023-04-02T02:41:45.246Z,4.30
2023-04-02T02:44:23.851Z,4.10
2023-04-02T02:47:00.327Z,5.20
2023-04-02T02:49:36.207Z,5.00
2023-04-02T02:52:16.351Z,4.60
2023-04-02T02:54:49.887Z,5.00
2023-04-02T02:57:26.290Z,4.30
2023-04-02T02:59:57.715Z,4.30
2023-04-02T03:02:27.676Z,3.70
2023-04-02T03:04:56.628Z,4.40
2023-04-02T03:07:27.556Z,4.20
2023-04-02T03:10:15.373Z,4.00
2023-04-02T03:12:51.756Z,4.30
2023-04-02T03:15:59.654Z,4.50
2023-04-02T03:18:30.520Z,4.10
2023-04-02T03:21:06.910Z,4.20
2023-04-02T03:23:42.835Z,4.50
2023-04-02T03:26:22.887Z,3.90
2023-04-02T03:28:59.688Z,4.20
2023-04-02T03:32:00.758Z,4.00
2023-04-02T03:34:33.052Z,4.20
2023-04-02T03:37:22.788Z,4.10
2023-04-02T03:40:28.254Z,3.70
2023-04-02T03:43:24.245Z,4.40
2023-04-02T03:45:59.464Z,3.70
2023-04-02T03:48:37.291Z,3.90
2023-04-02T03:51:17.249Z,3.90
2023-04-02T03:53:46.492Z,4.00
2023-04-02T03:56:41.457Z,4.40
2023-04-02T03:59:27.839Z,4.30
2023-04-02T04:02:19.519Z,4.00
2023-04-02T04:04:50.490Z,4.30
2023-04-02T04:07:35.841Z,4.40
2023-04-02T04:10:06.519Z,4.60
2023-04-02T04:12:43.649Z,4.00
2023-04-02T04:15:37.688Z,3.80
2023-04-02T04:18:34.944Z,4.30
2023-04-02T04:21:31.414Z,4.00
2023-04-02T04:24:07.992Z,4.60
2023-04-02T04:26:39.690Z,4.60
2023-04-02T04:29:33.383Z,4.50
2023-04-02T04:32:34.116Z,5.30
2023-04-02T04:35:17.587Z,7.00
2023-04-02T04:37:58.808Z,8.40
2023-04-02T04:40:31.389Z,9.30
2023-04-02T04:43:06.100Z,8.40
2023-04-02T04:45:46.114Z,9.10
2023-04-02T04:48:26.825Z,8.20
2023-04-02T04:51:06.096Z,6.60
2023-04-02T04:53:41.093Z,5.30
2023-04-02T04:56:18.634Z,5.10
2023-04-02T04:58:59.532Z,6.40
2023-04-02T05:01:34.562Z,5.70
2023-04-02T05:04:26.991Z,4.90
2023-04-02T05:07:06.021Z,4.90
2023-04-02T05:09:40.126Z,4.50
2023-04-02T05:12:26.612Z,5.20
2023-04-02T05:15:00.904Z,5.70
2023-04-02T05:17:36.177Z,6.00
2023-04-02T05:20:16.560Z,5.80
2023-04-02T05:22:56.497Z,6.40
2023-04-02T05:25:30.396Z,5.70
2023-04-02T05:28:16.209Z,5.20
2023-04-02T05:30:46.829Z,5.00
2023-04-02T05:33:27.866Z,4.70
2023-04-02T05:36:07.467Z,4.20
2023-04-02T05:38:37.925Z,4.70
2023-04-02T05:41:27.041Z,5.70
2023-04-02T05:44:00.009Z,5.10
2023-04-02T05:46:33.958Z,5.70
2023-04-02T05:49:07.212Z,4.90
2023-04-02T05:51:49.495Z,5.10
2023-04-02T05:54:29.361Z,5.80
2023-04-02T05:57:08.013Z,5.70
2023-04-02T05:59:44.811Z,5.10
2023-04-02T06:02:36.695Z,5.10
2023-04-02T06:05:19.126Z,4.50
2023-04-02T06:07:55.557Z,5.10
2023-04-02T06:10:29.446Z,5.00
2023-04-02T06:13:04.478Z,5.60
2023-04-02T06:15:35.403Z,5.20
2023-04-02T06:18:14.194Z,5.00
2023-04-02T06:20:41.976Z,5.30
2023-04-02T06:23:18.103Z,5.10
2023-04-02T06:26:09.941Z,4.80
2023-04-02T06:28:47.090Z,5.60
2023-04-02T06:31:20.899Z,5.20
2023-04-02T06:33:52.386Z,4.90
2023-04-02T06:36:20.917Z,5.00
2023-04-02T06:38:50.958Z,5.00
2023-04-02T06:41:23.987Z,5.20
2023-04-02T06:44:00.504Z,5.30
2023-04-02T06:46:31.487Z,5.60
2023-04-02T06:49:09.447Z,5.30
2023-04-02T06:51:40.487Z,5.10
2023-04-02T06:54:15.134Z,5.70
2023-04-02T06:56:51.658Z,5.20
2023-04-02T06:59:20.110Z,5.60
2023-04-02T07:02:33.212Z,6.20
2023-04-02T07:05:09.431Z,5.60
2023-04-02T07:07:37.377Z,6.00
2023-04-02T07:10:07.035Z,6.00
2023-04-02T07:12:35.046Z,5.70
2023-04-02T07:15:03.938Z,5.40
2023-04-02T07:17:32.090Z,5.10
2023-04-02T07:20:00.140Z,5.80
2023-04-02T07:22:28.116Z,5.40
2023-04-02T07:24:56.347Z,5.30
2023-04-02T07:27:24.355Z,5.50
2023-04-02T07:29:52.258Z,5.30
2023-04-02T07:32:20.044Z,5.30
2023-04-02T07:34:49.022Z,5.00
2023-04-02T07:37:17.155Z,5.10
2023-04-02T07:39:45.036Z,5.60
2023-04-02T07:42:12.924Z,4.90
2023-04-02T07:44:40.822Z,4.60
2023-04-02T07:47:10.715Z,4.30
2023-04-02T07:49:38.555Z,5.10
2023-04-02T07:52:06.920Z,4.70
2023-04-02T07:54:35.942Z,4.70
2023-04-02T07:57:04.065Z,4.50
2023-04-02T07:59:32.896Z,4.50
2023-04-02T08:02:01.039Z,4.20
2023-04-02T08:04:28.979Z,4.20
2023-04-02T08:06:56.875Z,4.60
2023-04-02T08:09:24.697Z,4.70
2023-04-02T08:11:52.625Z,4.70
2023-04-02T08:14:20.463Z,4.60
2023-04-02T08:16:55.207Z,5.00
2023-04-02T08:19:24.362Z,5.30
2023-04-02T08:21:53.168Z,4.90
2023-04-02T08:24:22.018Z,4.90
2023-04-02T08:26:51.385Z,5.30
2023-04-02T08:29:19.982Z,4.70
2023-04-02T08:31:48.259Z,4.80
2023-04-02T08:34:16.338Z,5.30
2023-04-02T08:36:45.586Z,5.00
2023-04-02T08:39:14.073Z,5.00
2023-04-02T08:42:03.266Z,5.10
2023-04-02T08:44:58.086Z,4.70
2023-04-02T08:47:29.933Z,4.60
2023-04-02T08:50:01.809Z,4.70
2023-04-02T08:52:36.759Z,4.50
2023-04-02T08:55:33.637Z,5.20
2023-04-02T08:58:21.978Z,5.00
2023-04-02T09:00:54.272Z,5.00
2023-04-02T09:03:38.770Z,5.00
2023-04-02T09:06:10.066Z,4.80
2023-04-02T09:08:39.674Z,4.70
2023-04-02T09:11:41.749Z,4.50
2023-04-02T09:14:21.137Z,4.90
2023-04-02T09:17:00.735Z,4.70
2023-04-02T09:19:39.046Z,5.20
2023-04-02T09:22:20.560Z,4.60
2023-04-02T09:24:59.994Z,4.70
2023-04-02T09:27:31.517Z,4.70
2023-04-02T09:30:06.741Z,4.60
2023-04-02T09:32:49.598Z,4.50
2023-04-02T09:35:26.581Z,3.70
2023-04-02T09:38:10.396Z,4.40
2023-04-02T09:40:50.672Z,4.40
2023-04-02T09:43:21.818Z,3.60
2023-04-02T09:46:23.519Z,4.40
2023-04-02T09:49:03.811Z,4.00
2023-04-02T09:51:34.735Z,4.60
2023-04-02T09:54:02.865Z,4.10
2023-04-02T09:56:32.864Z,3.90
2023-04-02T09:59:12.707Z,4.50
2023-04-02T10:01:57.420Z,4.20
2023-04-02T10:04:39.326Z,4.50
2023-04-02T10:07:07.308Z,4.10
2023-04-02T10:09:38.591Z,4.30
2023-04-02T10:12:13.527Z,3.20
2023-04-02T10:14:46.307Z,4.60
2023-04-02T10:17:27.604Z,4.30
2023-04-02T10:20:02.604Z,6.80
2023-04-02T10:22:30.921Z,4.50
2023-04-02T10:24:59.569Z,3.50
2023-04-02T10:27:37.785Z,3.70
2023-04-02T10:30:22.429Z,3.60
2023-04-02T10:33:03.546Z,7.40
2023-04-02T10:35:56.409Z,5.00
2023-04-02T10:38:35.092Z,4.60
2023-04-02T10:41:15.523Z,4.20
2023-04-02T10:43:46.620Z,3.40
2023-04-02T10:46:23.654Z,3.20
2023-04-02T10:49:02.375Z,4.80
2023-04-02T10:51:30.571Z,4.00
2023-04-02T10:54:22.797Z,3.30
2023-04-02T10:56:55.441Z,4.00
2023-04-02T10:59:35.568Z,4.70
2023-04-02T11:02:16.807Z,3.80
2023-04-02T11:04:46.740Z,3.30
2023-04-02T11:07:20.087Z,4.50
2023-04-02T11:09:52.424Z,5.20
2023-04-02T11:12:46.622Z,3.20
2023-04-02T11:15:19.122Z,3.10
2023-04-02T11:17:48.205Z,2.90
2023-04-02T11:21:07.796Z,3.00
2023-04-02T11:23:57.145Z,3.10
2023-04-02T11:26:39.207Z,3.10
2023-04-02T11:29:15.762Z,2.80
2023-04-02T11:31:45.946Z,2.90
2023-04-02T11:34:56.712Z,3.20
2023-04-02T11:37:45.598Z,2.80
2023-04-02T11:40:16.518Z,2.90
2023-04-02T11:42:45.423Z,2.60
2023-04-02T11:45:28.579Z,2.60
2023-04-02T11:48:23.055Z,2.70
2023-04-02T11:50:51.128Z,2.50
2023-04-02T11:53:35.857Z,2.70
2023-04-02T11:56:21.469Z,2.40
2023-04-02T11:59:07.014Z,2.70
2023-04-02T12:01:55.953Z,2.80
2023-04-02T12:05:04.468Z,2.40
2023-04-02T12:07:52.407Z,2.60
2023-04-02T12:10:23.268Z,2.80
2023-04-02T12:12:51.845Z,2.80
2023-04-02T12:15:41.379Z,2.50
2023-04-02T12:18:24.345Z,2.60
2023-04-02T12:20:56.806Z,2.90
2023-04-02T12:23:31.413Z,2.80
2023-04-02T12:26:07.487Z,2.90
2023-04-02T12:28:38.112Z,2.20
2023-04-02T12:31:09.163Z,2.20
2023-04-02T12:33:38.805Z,2.30
2023-04-02T12:36:20.195Z,2.40
2023-04-02T12:38:56.808Z,2.30
2023-04-02T12:41:33.422Z,2.20
2023-04-02T12:44:02.266Z,2.30
2023-04-02T12:46:32.898Z,2.20
2023-04-02T12:49:06.746Z,2.50
2023-04-02T12:54:06.212Z,2.50
2023-04-02T12:56:34.308Z,2.20
2023-04-02T12:59:02.233Z,2.20
2023-04-02T13:01:32.068Z,2.10
2023-04-02T13:04:04.571Z,2.30
2023-04-02T13:06:34.188Z,2.20
2023-04-02T13:09:05.107Z,2.90
2023-04-02T13:11:42.428Z,2.00
2023-04-02T13:14:19.901Z,2.10
2023-04-02T13:16:47.957Z,2.40
2023-04-02T13:19:31.540Z,2.00
2023-04-02T13:22:01.872Z,2.30
2023-04-02T13:24:32.735Z,2.30
2023-04-02T13:27:03.124Z,2.00
2023-04-02T13:29:36.009Z,2.20
2023-04-02T13:32:06.835Z,2.80
2023-04-02T13:34:34.721Z,2.60
2023-04-02T13:37:02.609Z,2.50
2023-04-02T13:39:30.596Z,2.30
2023-04-02T13:42:01.762Z,2.70
2023-04-02T13:44:32.258Z,3.20
2023-04-02T13:47:00.767Z,2.80
2023-04-02T13:49:29.151Z,2.60
2023-04-02T13:52:04.364Z,2.40
2023-04-02T13:54:46.646Z,2.50
2023-04-02T13:57:15.203Z,2.70
2023-04-02T13:59:43.188Z,2.90
2023-04-02T14:02:29.344Z,2.80
2023-04-02T14:05:27.230Z,2.90
2023-04-02T14:08:13.295Z,2.60
2023-04-02T14:11:01.036Z,2.80
2023-04-02T14:13:37.190Z,2.80
2023-04-02T14:16:31.429Z,2.60
2023-04-02T14:21:56.295Z,2.90
2023-04-02T14:24:39.061Z,3.20
2023-04-02T14:27:28.733Z,2.70
2023-04-02T14:30:39.642Z,3.00
2023-04-02T14:33:23.931Z,3.40
2023-04-02T14:38:50.784Z,3.20
2023-04-02T14:41:50.152Z,3.10
2023-04-02T14:44:23.510Z,2.90
2023-04-02T14:46:59.227Z,3.20
2023-04-02T14:49:33.298Z,3.00
2023-04-02T14:52:07.239Z,3.00
2023-04-02T14:54:38.675Z,3.00
2023-04-02T14:57:18.919Z,2.90
2023-04-02T14:59:58.876Z,3.30
2023-04-02T15:02:46.278Z,3.20
2023-04-02T15:05:20.351Z,2.60
2023-04-02T15:08:15.589Z,2.70
2023-04-02T15:11:02.148Z,2.40
2023-04-02T15:13:54.542Z,2.80
2023-04-02T15:16:27.284Z,2.90
2023-04-02T15:18:57.434Z,3.00
2023-04-02T15:21:55.761Z,2.60
2023-04-02T15:24:40.346Z,5.30
2023-04-02T15:27:25.226Z,2.80
2023-04-02T15:30:09.035Z,2.70
2023-04-02T15:32:39.931Z,2.80
2023-04-02T15:35:32.493Z,2.70
2023-04-02T15:38:35.637Z,2.60
2023-04-02T15:41:23.533Z,2.90
2023-04-02T15:44:03.542Z,2.60
2023-04-02T15:46:46.800Z,3.00
2023-04-02T15:49:27.347Z,2.80
2023-04-02T15:52:26.782Z,3.20
2023-04-02T15:55:13.022Z,2.70
2023-04-02T15:58:19.243Z,3.00
2023-04-02T16:00:52.114Z,2.80
2023-04-02T16:03:38.775Z,3.40
2023-04-02T16:06:27.232Z,3.00
2023-04-02T16:09:20.221Z,3.10
2023-04-02T16:11:56.009Z,2.80
2023-04-02T16:14:26.353Z,3.20
2023-04-02T16:17:10.875Z,3.00
2023-04-02T16:19:51.258Z,3.00
2023-04-02T16:22:29.098Z,3.30
2023-04-02T16:25:20.706Z,3.20
2023-04-02T16:28:03.435Z,3.40
2023-04-02T16:30:56.789Z,3.30
2023-04-02T16:33:37.001Z,3.30
2023-04-02T16:36:27.041Z,3.00
2023-04-02T16:39:13.920Z,3.60
2023-04-02T16:41:52.143Z,3.10
2023-04-02T16:44:57.837Z,2.90
2023-04-02T16:47:59.739Z,3.00
2023-04-02T16:50:33.454Z,3.30
2023-04-02T16:53:21.230Z,3.30
2023-04-02T16:56:03.222Z,4.00
2023-04-02T16:58:31.042Z,3.90
2023-04-02T17:01:20.543Z,4.10
2023-04-02T17:04:16.012Z,4.20
2023-04-02T17:06:55.920Z,4.10
2023-04-02T17:09:26.708Z,3.70
2023-04-02T17:12:41.343Z,3.90
2023-04-02T17:17:58.536Z,3.40
2023-04-02T17:20:26.544Z,3.30
2023-04-02T17:22:56.111Z,3.20
2023-04-02T17:25:31.676Z,2.70
2023-04-02T17:28:01.702Z,3.00
2023-04-02T17:30:43.571Z,3.60
2023-04-02T17:33:14.328Z,2.60
2023-04-02T17:35:53.569Z,2.30
2023-04-02T17:38:27.348Z,2.30
2023-04-02T17:43:33.761Z,2.30
2023-04-02T17:46:18.129Z,2.00
2023-04-02T17:48:48.447Z,2.10
2023-04-02T17:51:31.776Z,2.60
2023-04-02T17:54:27.834Z,1.80
2023-04-02T17:56:58.673Z,2.00
2023-04-02T17:59:44.194Z,1.90
2023-04-02T18:02:28.305Z,2.10
2023-04-02T18:10:30.637Z,1.80
2023-04-02T18:13:07.517Z,1.70
2023-04-02T18:15:55.490Z,1.70
2023-04-02T18:18:41.974Z,1.70
2023-04-02T18:21:25.700Z,1.60
2023-04-02T18:23:59.704Z,1.60
2023-04-02T18:26:42.862Z,1.50
2023-04-02T18:29:16.804Z,1.90
2023-04-02T18:31:47.584Z,3.70
2023-04-02T18:34:30.718Z,6.80
2023-04-02T18:37:22.621Z,4.80
2023-04-02T18:40:30.732Z,4.90
2023-04-02T18:43:17.229Z,3.80
2023-04-02T18:46:09.395Z,4.50
2023-04-02T18:48:59.044Z,4.80
2023-04-02T18:51:32.169Z,4.50
2023-04-02T18:54:08.968Z,3.80
2023-04-02T18:56:40.629Z,4.00
2023-04-02T18:59:35.996Z,3.90
2023-04-02T19:02:38.951Z,5.00
2023-04-02T19:05:20.612Z,4.80
2023-04-02T19:07:52.593Z,4.60
2023-04-02T19:10:31.282Z,4.10
2023-04-02T19:12:59.250Z,4.20
2023-04-02T19:15:43.422Z,4.70
2023-04-02T19:18:28.907Z,3.90
2023-04-02T19:21:04.525Z,4.90
2023-04-02T19:23:50.667Z,5.50
2023-04-02T19:26:24.145Z,5.00
2023-04-02T19:29:19.746Z,5.60
2023-04-02T19:32:05.090Z,5.90
2023-04-02T19:34:57.336Z,6.40
2023-04-02T19:37:36.790Z,6.60
2023-04-02T19:40:11.807Z,7.20
2023-04-02T19:42:48.345Z,6.40
2023-04-02T19:45:22.384Z,7.70
2023-04-02T19:47:50.748Z,9.30
2023-04-02T19:50:18.662Z,9.50
2023-04-02T19:52:54.654Z,8.80
2023-04-02T19:55:22.518Z,9.80
2023-04-02T19:57:51.396Z,8.70
2023-04-02T20:00:21.454Z,9.70
2023-04-02T20:02:49.461Z,10.40
2023-04-02T20:05:17.411Z,11.10
2023-04-02T20:07:45.435Z,11.50
2023-04-02T20:10:13.474Z,11.00
2023-04-02T20:12:41.474Z,10.30
2023-04-02T20:15:09.796Z,10.50
2023-04-02T20:17:37.789Z,9.30
2023-04-02T20:20:07.047Z,7.60
2023-04-02T20:22:34.945Z,7.50
2023-04-02T20:25:02.893Z,6.20
2023-04-02T20:27:31.270Z,7.10
2023-04-02T20:29:59.088Z,6.40
2023-04-02T20:32:27.092Z,7.50
2023-04-02T20:34:56.373Z,7.30
2023-04-02T20:37:24.391Z,9.30
2023-04-02T20:39:52.959Z,11.30
2023-04-02T20:42:21.210Z,25.50
2023-04-02T20:44:49.074Z,12.30
2023-04-02T20:47:17.492Z,7.80
2023-04-02T20:49:45.416Z,8.20
2023-04-02T20:52:13.278Z,17.20
2023-04-02T20:54:41.232Z,11.60
2023-04-02T20:57:09.087Z,7.20
2023-04-02T20:59:37.043Z,9.10
2023-04-02T21:02:04.905Z,18.20
2023-04-02T21:04:32.870Z,32.60
2023-04-02T21:07:00.947Z,31.30
2023-04-02T21:09:28.892Z,27.30
2023-04-02T21:11:56.777Z,15.90
2023-04-02T21:14:24.694Z,12.30
2023-04-02T21:16:52.655Z,12.30
2023-04-02T21:19:20.804Z,9.30
2023-04-02T21:21:48.771Z,10.00
2023-04-02T21:24:17.243Z,9.30
2023-04-02T21:26:46.639Z,10.30
2023-04-02T21:29:14.641Z,10.90
2023-04-02T21:31:43.283Z,10.70
2023-04-02T21:34:16.130Z,9.80
2023-04-02T21:36:47.206Z,9.60
2023-04-02T21:39:23.553Z,9.80
2023-04-02T21:41:53.350Z,9.30
2023-04-02T21:44:23.326Z,9.90
2023-04-02T21:46:53.591Z,10.00
2023-04-02T21:49:23.224Z,9.10
2023-04-02T21:51:51.826Z,9.50
2023-04-02T21:54:20.339Z,10.10
2023-04-02T21:56:49.154Z,9.70
2023-04-02T21:59:18.109Z,10.20
2023-04-02T22:01:48.680Z,10.60
2023-04-02T22:04:22.640Z,10.30
2023-04-02T22:09:24.404Z,9.80
2023-04-02T22:11:55.590Z,9.80
2023-04-02T22:14:23.562Z,9.80
2023-04-02T22:16:52.340Z,9.20
2023-04-02T22:19:20.981Z,9.00
2023-04-02T22:21:49.142Z,9.00
2023-04-02T22:24:18.996Z,10.20
2023-04-02T22:26:47.229Z,10.30
2023-04-02T22:29:15.758Z,10.50
2023-04-02T22:31:43.882Z,11.40
2023-04-02T22:34:12.056Z,12.30
2023-04-02T22:36:40.071Z,12.80
2023-04-02T22:39:10.457Z,13.80
2023-04-02T22:41:38.659Z,13.30
2023-04-02T22:44:06.967Z,14.00
2023-04-02T22:46:35.169Z,13.70
2023-04-02T22:49:03.485Z,14.20
2023-04-02T22:51:31.611Z,13.40
2023-04-02T22:53:59.460Z,11.70
2023-04-02T22:56:31.882Z,11.40
2023-04-02T22:59:00.771Z,10.50
2023-04-02T23:01:32.064Z,11.40
2023-04-02T23:04:00.596Z,9.90
2023-04-02T23:06:28.682Z,10.40
2023-04-02T23:08:57.021Z,10.40
2023-04-02T23:11:27.467Z,10.70
2023-04-02T23:13:57.376Z,10.40
2023-04-02T23:16:27.763Z,11.60
2023-04-02T23:18:56.565Z,11.70
2023-04-02T23:21:26.268Z,12.10
2023-04-02T23:23:55.146Z,11.80
2023-04-02T23:26:27.207Z,12.00
2023-04-02T23:28:55.404Z,12.50
2023-04-02T23:31:24.471Z,12.50
2023-04-02T23:33:52.754Z,11.60
2023-04-02T23:36:31.184Z,10.70
2023-04-02T23:39:01.875Z,11.30
2023-04-02T23:41:31.093Z,11.90
2023-04-02T23:43:59.093Z,11.10
2023-04-02T23:46:28.155Z,11.80
2023-04-02T23:48:57.206Z,11.90
2023-04-02T23:51:26.689Z,10.80
2023-04-02T23:53:55.535Z,11.60
2023-04-02T23:56:24.119Z,10.90
2023-04-02T23:58:52.104Z,9.10
